Airport View

Enter AWOS ICAO identifier for current METAR.

ex. KFNL

KMFV 280125Z AUTO 18004KT 10SM OVC044 21/18 A2995 RMK AO2 T02050180

28 Sep 2020 01:28

Frequency: 118.175

Phone: 757-787-5660

Other Area AWOS: KTGI - KWAL - KW75 - KSBY

TAF KSBY 272352Z 2800/2824 16005KT P6SM FEW007 SCT012 OVC020 FM280100 19003KT 4SM BR BKN025 FM280600 VRB03KT 2SM BR VCSH BKN020 FM281300 19006KT P6SM BKN050 FM281600 20008KT P6SM BKN070